Decoded Metar for GMFM (MEKNES in MOROCCO) (IATA:MEK) | Meteo·Mobile Aviation Weather
aviador You're here:

GMFM Decoded Metar

MEKNES in MOROCCO
Report Time2018-11-19 03:00:00
UTC Time2018-11-19 03:55:00
Flight Rules mvfr MVFR
Wind220° at 06 kt
W.Decomp.*RWY 26: 4.7 kt HW 3.7 kt LCW
RWY 27: 4.0 kt HW 4.5 kt LCW
W.Rank220° ranks 18
Current wind is above 220° avg. (5.1)
Visibility8000 m
Phenomena:N/A
Clouds:Broken 016 Hf
Expected CloudBase > 1,600 ft AGL from Temp-Dew spread
Ceiling1,600 ft
Temp11°C (ISA -0)
Dew Point07°C (77% RH)
AAT8.2°C
QNH1006 hPa
Density Alt2,129 ft
Elevation1,801 ft
Report Wrong Elevation
Raw Report
GMFM 190300Z 22006KT 8000 BKN016 11/07 Q1006 NOSIG=

Extra information for GMFM:More info

Metar Taf Metar & Taf Last 4 Metars F.Rules Stats Wind Profile Meteogram Temp Stats Airport Information Weather charts Add Link Nearby VenuesMetar ALERT Operation Metar Decoded Social comments